Time;durP1;ratioP1;P1;durP2;ratioP2;P2;SDS_P1;SDS_P2;PMS_P1;PMS_P2;Temp;Humidity;BMP_temperature;BMP_pressure;BME280_temperature;BME280_humidity;BME280_pressure;Samples;Min_cycle;Max_cycle;Signal;HPM_P1;HPM_P2
2022/03/25 00:01:00;;;;;;;20.27;9.10;;;8.00;83.50;;;;;;5077429;28;20364;-78
2022/03/25 00:03:26;;;;;;;21.63;9.07;;;8.10;82.80;;;;;;5095116;28;20030;-79
2022/03/25 00:05:52;;;;;;;23.77;9.38;;;8.10;82.70;;;;;;5095281;28;20028;-78
2022/03/25 00:08:18;;;;;;;21.77;10.07;;;8.00;83.90;;;;;;5094367;28;20027;-79
2022/03/25 00:10:44;;;;;;;21.13;9.70;;;7.90;83.00;;;;;;5076583;28;20364;-79
2022/03/25 00:13:10;;;;;;;21.27;9.73;;;7.80;85.10;;;;;;5077329;28;20028;-78
2022/03/25 00:15:36;;;;;;;19.58;10.05;;;7.70;85.60;;;;;;5076526;28;20024;-78
2022/03/25 00:18:02;;;;;;;19.25;9.65;;;7.60;86.60;;;;;;5094641;28;20028;-79
2022/03/25 00:20:28;;;;;;;24.52;10.60;;;7.50;87.70;;;;;;5076721;28;20040;-79
2022/03/25 00:22:53;;;;;;;19.98;9.52;;;7.40;89.70;;;;;;5076769;28;20039;-79
2022/03/25 00:25:19;;;;;;;21.55;10.50;;;7.20;90.70;;;;;;5094711;28;20024;-78
2022/03/25 00:27:44;;;;;;;22.65;10.82;;;7.10;90.90;;;;;;5075964;28;20020;-79
2022/03/25 00:30:10;;;;;;;21.30;11.23;;;7.10;91.20;;;;;;5076600;28;20023;-79
2022/03/25 00:32:37;;;;;;;22.33;9.93;;;7.10;91.60;;;;;;5094176;28;20019;-78
2022/03/25 00:35:04;;;;;;;22.23;10.65;;;7.20;92.10;;;;;;5094451;28;20367;-79
2022/03/25 00:37:30;;;;;;;23.55;10.95;;;7.20;92.40;;;;;;5076096;28;20410;-79
2022/03/25 00:39:55;;;;;;;23.58;11.10;;;7.20;91.90;;;;;;5076468;28;20020;-79
2022/03/25 00:42:21;;;;;;;18.25;10.43;;;7.30;91.10;;;;;;5094586;28;20076;-79
2022/03/25 00:44:47;;;;;;;24.08;10.90;;;7.30;91.20;;;;;;5075937;28;20061;-79
2022/03/25 00:47:14;;;;;;;18.95;9.93;;;7.20;91.60;;;;;;5076537;28;20062;-79
2022/03/25 00:49:39;;;;;;;20.33;10.85;;;7.30;91.30;;;;;;5093957;28;20414;-79
2022/03/25 00:52:05;;;;;;;21.23;11.10;;;7.40;91.40;;;;;;5094504;28;20016;-79
2022/03/25 00:54:31;;;;;;;27.98;10.70;;;7.30;91.50;;;;;;5093841;28;20040;-79
2022/03/25 00:56:57;;;;;;;21.75;10.32;;;7.30;91.70;;;;;;5075948;28;20028;-79
2022/03/25 00:59:22;;;;;;;23.00;10.45;;;7.20;91.90;;;;;;5075761;28;20027;-79
2022/03/25 01:01:48;;;;;;;22.10;10.93;;;7.10;92.20;;;;;;5075819;28;20107;-78
2022/03/25 01:04:13;;;;;;;20.63;10.57;;;7.00;92.90;;;;;;5094014;28;20020;-78
2022/03/25 01:06:39;;;;;;;20.90;10.55;;;7.00;93.30;;;;;;5093277;28;20027;-78
2022/03/25 01:09:05;;;;;;;25.80;11.13;;;7.00;93.00;;;;;;5076039;28;20452;-78
2022/03/25 01:11:31;;;;;;;23.77;10.70;;;6.90;94.00;;;;;;5093789;28;20052;-78
2022/03/25 01:13:58;;;;;;;22.48;11.63;;;6.90;94.10;;;;;;5093501;28;20028;-77
2022/03/25 01:16:24;;;;;;;24.27;10.63;;;6.80;94.20;;;;;;5093748;28;20103;-77
2022/03/25 01:18:50;;;;;;;21.80;9.93;;;6.80;94.50;;;;;;5074934;28;20123;-77
2022/03/25 01:21:17;;;;;;;21.23;10.68;;;6.80;94.20;;;;;;5093550;28;20073;-77
2022/03/25 01:23:44;;;;;;;21.08;9.85;;;6.80;94.10;;;;;;5093142;28;20028;-77
2022/03/25 01:26:09;;;;;;;27.10;11.23;;;6.90;94.20;;;;;;5093744;28;20430;-77
2022/03/25 01:28:35;;;;;;;24.85;10.93;;;6.90;93.90;;;;;;5074959;28;20024;-78
2022/03/25 01:31:06;;;;;;;19.48;10.13;;;6.90;93.80;;;;;;5075106;28;20023;-79
2022/03/25 01:33:33;;;;;;;19.57;10.80;;;6.70;94.20;;;;;;5093484;28;20024;-77
2022/03/25 01:35:58;;;;;;;22.00;10.02;;;6.70;94.50;;;;;;5075494;28;20025;-77
2022/03/25 01:38:25;;;;;;;19.25;9.73;;;6.60;94.70;;;;;;5075422;28;20028;-77
2022/03/25 01:40:52;;;;;;;23.50;10.68;;;6.60;94.80;;;;;;5074937;28;20020;-77
2022/03/25 01:43:18;;;;;;;21.60;10.57;;;6.60;95.20;;;;;;5093151;28;20115;-77
2022/03/25 01:45:44;;;;;;;24.30;11.15;;;6.50;95.40;;;;;;5074796;28;20121;-78
2022/03/25 01:48:12;;;;;;;19.40;10.70;;;6.50;95.80;;;;;;5075567;28;20024;-79
2022/03/25 01:50:43;;;;;;;25.02;10.48;;;6.50;95.50;;;;;;5093063;28;20111;-79
2022/03/25 01:53:14;;;;;;;16.52;7.70;;;6.60;95.30;;;;;;5075996;28;20028;-79
2022/03/25 01:55:48;;;;;;;19.67;9.90;;;6.60;95.10;;;;;;5074927;28;20039;-79
2022/03/25 01:58:14;;;;;;;24.17;10.60;;;6.60;94.90;;;;;;5076092;28;20024;-79
2022/03/25 02:00:40;;;;;;;22.35;10.90;;;6.70;94.80;;;;;;5075138;28;20491;-78
2022/03/25 02:03:06;;;;;;;18.00;10.20;;;6.60;94.90;;;;;;5093208;28;20027;-79
2022/03/25 02:05:31;;;;;;;23.65;10.48;;;6.60;95.10;;;;;;5093410;28;20103;-79
2022/03/25 02:07:57;;;;;;;18.57;10.13;;;6.60;95.10;;;;;;5092900;28;20095;-79
2022/03/25 02:10:23;;;;;;;21.83;10.03;;;6.60;95.10;;;;;;5075724;28;20020;-79
2022/03/25 02:12:49;;;;;;;21.23;10.77;;;6.50;95.30;;;;;;5075102;28;20031;-79
2022/03/25 02:15:15;;;;;;;21.52;10.10;;;6.50;95.40;;;;;;5093041;28;20016;-77
2022/03/25 02:17:41;;;;;;;22.03;11.07;;;6.50;95.50;;;;;;5074669;28;20022;-77
2022/03/25 02:20:08;;;;;;;19.00;10.15;;;6.40;95.50;;;;;;5092915;28;20094;-76
2022/03/25 02:22:39;;;;;;;20.13;10.93;;;6.40;95.80;;;;;;5074756;28;20119;-77
2022/03/25 02:25:09;;;;;;;20.10;10.60;;;6.30;96.20;;;;;;5075232;28;20032;-77
2022/03/25 02:27:37;;;;;;;22.30;10.27;;;6.20;96.40;;;;;;5075055;28;20032;-77
2022/03/25 02:30:06;;;;;;;22.80;11.00;;;6.20;96.70;;;;;;5075645;28;20061;-80
2022/03/25 02:32:32;;;;;;;21.53;10.57;;;6.20;96.50;;;;;;5078933;28;20402;-81
2022/03/25 02:34:58;;;;;;;22.77;10.53;;;6.20;96.60;;;;;;5096861;28;20056;-80
2022/03/25 02:37:25;;;;;;;24.20;10.73;;;6.20;96.30;;;;;;5097254;28;20333;-80
2022/03/25 02:39:54;;;;;;;22.17;11.27;;;6.20;96.40;;;;;;5096469;28;20062;-80
2022/03/25 02:42:20;;;;;;;22.83;11.53;;;6.20;96.50;;;;;;5079057;28;20016;-80
2022/03/25 02:44:48;;;;;;;21.27;10.67;;;6.00;96.50;;;;;;5078427;28;20055;-81
2022/03/25 02:47:14;;;;;;;22.97;10.83;;;6.00;97.10;;;;;;5078814;28;20532;-81
2022/03/25 02:49:40;;;;;;;24.70;10.60;;;6.00;97.00;;;;;;5078145;28;20440;-80
2022/03/25 02:52:06;;;;;;;21.17;10.20;;;6.10;96.90;;;;;;5096306;28;20078;-80
2022/03/25 02:54:32;;;;;;;22.03;10.90;;;6.00;96.90;;;;;;5078637;28;20195;-80
2022/03/25 02:56:58;;;;;;;24.93;10.37;;;6.00;97.00;;;;;;5096148;28;20024;-80
2022/03/25 02:59:25;;;;;;;19.33;10.00;;;6.00;97.10;;;;;;5078932;28;20047;-79
2022/03/25 03:01:51;;;;;;;22.17;10.77;;;6.00;96.70;;;;;;5078082;28;20028;-79
2022/03/25 03:04:17;;;;;;;21.13;11.20;;;6.00;96.70;;;;;;5096244;28;20028;-79
2022/03/25 03:06:43;;;;;;;20.77;10.37;;;6.00;96.80;;;;;;5078087;28;20051;-79
2022/03/25 03:09:10;;;;;;;21.83;10.60;;;5.90;97.00;;;;;;5078116;28;20031;-78
2022/03/25 03:11:36;;;;;;;24.97;10.53;;;5.80;96.90;;;;;;5078375;28;20050;-78
2022/03/25 03:14:06;;;;;;;24.63;11.43;;;5.70;97.30;;;;;;5077898;28;20122;-79
2022/03/25 03:16:31;;;;;;;19.40;10.50;;;5.60;97.40;;;;;;5078124;28;20020;-78
2022/03/25 03:18:57;;;;;;;19.97;10.53;;;5.70;97.40;;;;;;5077528;28;20040;-78
2022/03/25 03:21:24;;;;;;;18.97;10.77;;;5.80;97.20;;;;;;5078343;28;20115;-78
2022/03/25 03:23:54;;;;;;;24.00;10.57;;;5.80;97.20;;;;;;5077193;28;20082;-78
2022/03/25 03:26:20;;;;;;;21.10;11.43;;;5.70;97.30;;;;;;5078166;28;20024;-78
2022/03/25 03:28:46;;;;;;;20.73;10.63;;;5.60;97.40;;;;;;5077328;28;20023;-78
2022/03/25 03:31:12;;;;;;;23.00;10.60;;;5.70;97.50;;;;;;5096325;28;20370;-78
2022/03/25 03:33:38;;;;;;;23.80;10.80;;;5.60;97.80;;;;;;5077683;28;20410;-78
2022/03/25 03:36:04;;;;;;;22.77;10.53;;;5.60;97.80;;;;;;5077268;28;20020;-78
2022/03/25 03:38:30;;;;;;;20.90;10.83;;;5.70;97.80;;;;;;5077726;28;20020;-78
2022/03/25 03:40:55;;;;;;;20.27;10.33;;;5.70;97.60;;;;;;5077011;28;20490;-79
2022/03/25 03:43:21;;;;;;;23.37;10.70;;;5.70;97.50;;;;;;5094240;28;20111;-79
2022/03/25 03:45:47;;;;;;;22.00;10.87;;;5.70;97.50;;;;;;5077002;28;20024;-79
2022/03/25 03:48:13;;;;;;;20.13;10.33;;;5.70;97.60;;;;;;5077487;28;20024;-78
2022/03/25 03:50:39;;;;;;;20.00;11.03;;;5.60;97.90;;;;;;5077397;28;20024;-78
2022/03/25 03:53:05;;;;;;;23.50;11.30;;;5.60;97.80;;;;;;5095317;28;20130;-79
2022/03/25 03:55:31;;;;;;;21.20;11.10;;;5.60;98.00;;;;;;5095279;28;20023;-78
2022/03/25 03:57:57;;;;;;;22.03;11.33;;;5.60;97.80;;;;;;5077129;28;20024;-78
2022/03/25 04:00:24;;;;;;;21.03;11.03;;;5.60;97.80;;;;;;5095351;28;20028;-79
2022/03/25 04:02:51;;;;;;;23.97;11.03;;;5.60;97.80;;;;;;5076501;28;20437;-78
2022/03/25 04:05:17;;;;;;;23.33;11.40;;;5.50;98.10;;;;;;5095099;28;20502;-79
2022/03/25 04:07:46;;;;;;;26.57;10.73;;;5.40;98.50;;;;;;5076642;28;20044;-79
2022/03/25 04:10:13;;;;;;;22.17;10.23;;;5.40;98.60;;;;;;5077408;28;20354;-79
2022/03/25 04:12:40;;;;;;;23.83;11.27;;;5.40;98.50;;;;;;5077301;28;20024;-78
2022/03/25 04:15:10;;;;;;;23.90;10.50;;;5.50;98.30;;;;;;5076905;28;20024;-78
2022/03/25 04:17:37;;;;;;;25.83;11.37;;;5.50;98.30;;;;;;5094869;28;20017;-77
2022/03/25 04:20:03;;;;;;;20.63;10.37;;;5.40;98.40;;;;;;5076268;28;20085;-77
2022/03/25 04:22:29;;;;;;;22.03;10.83;;;5.40;98.30;;;;;;5095168;28;20107;-77
2022/03/25 04:24:55;;;;;;;19.67;10.47;;;5.30;98.70;;;;;;5094226;28;20055;-78
2022/03/25 04:27:21;;;;;;;19.60;10.57;;;5.20;98.80;;;;;;5077020;28;20372;-77
2022/03/25 04:29:47;;;;;;;22.73;10.57;;;5.20;99.10;;;;;;5076342;28;20024;-77
2022/03/25 04:32:12;;;;;;;19.70;9.97;;;5.10;99.30;;;;;;5077066;28;20031;-77
2022/03/25 04:34:38;;;;;;;21.03;11.03;;;5.00;99.10;;;;;;5076616;28;20540;-78
2022/03/25 04:37:04;;;;;;;21.70;11.30;;;5.00;99.30;;;;;;5094342;28;20031;-78
2022/03/25 04:39:29;;;;;;;20.40;9.87;;;4.90;99.50;;;;;;5076482;28;20353;-78
2022/03/25 04:41:55;;;;;;;23.50;11.27;;;4.90;99.60;;;;;;5093941;28;20020;-78
2022/03/25 04:44:21;;;;;;;24.23;12.17;;;4.90;99.50;;;;;;5076377;28;20035;-78
2022/03/25 04:46:46;;;;;;;21.87;11.07;;;5.00;99.40;;;;;;5093742;28;20023;-78
2022/03/25 04:49:12;;;;;;;21.10;11.53;;;5.00;99.30;;;;;;5094250;28;20020;-78
2022/03/25 04:51:38;;;;;;;20.53;10.40;;;4.90;99.30;;;;;;5076054;28;20410;-79
2022/03/25 04:54:03;;;;;;;21.10;10.60;;;4.90;99.20;;;;;;5075869;28;20039;-79
2022/03/25 04:56:30;;;;;;;21.43;11.00;;;4.90;99.40;;;;;;5076153;28;20016;-78
2022/03/25 04:58:55;;;;;;;21.47;11.50;;;4.90;99.40;;;;;;5075735;28;20115;-77
2022/03/25 05:01:21;;;;;;;21.27;11.10;;;4.90;99.40;;;;;;5075979;28;20058;-78
2022/03/25 05:03:46;;;;;;;24.80;11.50;;;4.90;99.30;;;;;;5075238;28;20024;-77
2022/03/25 05:06:12;;;;;;;25.03;11.50;;;4.80;99.60;;;;;;5076103;28;20027;-78
2022/03/25 05:08:38;;;;;;;21.13;11.20;;;4.90;99.60;;;;;;5093802;28;20463;-78
2022/03/25 05:11:03;;;;;;;19.97;10.97;;;4.80;99.80;;;;;;5093550;28;20410;-77
2022/03/25 05:13:29;;;;;;;21.90;11.17;;;4.80;99.90;;;;;;5093720;28;20028;-78
2022/03/25 05:15:55;;;;;;;21.40;11.27;;;4.70;99.90;;;;;;5093171;28;20020;-77
2022/03/25 05:18:21;;;;;;;24.00;12.10;;;4.70;99.90;;;;;;5075822;28;20020;-77
2022/03/25 05:20:46;;;;;;;22.00;10.97;;;4.60;99.90;;;;;;5093577;28;20032;-77
2022/03/25 05:23:12;;;;;;;24.23;11.67;;;4.60;99.90;;;;;;5076079;28;20042;-80
2022/03/25 05:25:38;;;;;;;22.13;11.50;;;4.70;99.90;;;;;;5094047;28;20016;-79
2022/03/25 05:28:04;;;;;;;24.37;11.83;;;4.70;99.90;;;;;;5093348;28;20410;-79
2022/03/25 05:30:31;;;;;;;22.97;11.50;;;4.80;99.90;;;;;;5075278;28;20064;-80
2022/03/25 05:32:58;;;;;;;21.63;10.93;;;4.70;99.90;;;;;;5071461;28;20021;-80
2022/03/25 05:35:25;;;;;;;22.67;12.03;;;4.80;99.90;;;;;;5066437;28;20054;-79
2022/03/25 05:37:51;;;;;;;24.57;11.63;;;4.70;99.90;;;;;;5054856;28;20028;-78
2022/03/25 05:40:19;;;;;;;22.97;11.13;;;4.70;99.90;;;;;;5032303;28;20036;-78
2022/03/25 05:42:45;;;;;;;24.53;12.27;;;4.70;99.90;;;;;;5063878;28;20024;-78
2022/03/25 05:45:10;;;;;;;25.93;11.60;;;4.70;99.90;;;;;;5060989;28;20037;-79
2022/03/25 05:47:38;;;;;;;24.13;11.30;;;4.60;99.90;;;;;;5073289;28;20178;-79
2022/03/25 05:50:05;;;;;;;25.90;11.73;;;4.70;99.90;;;;;;5061439;28;20054;-78
2022/03/25 05:52:31;;;;;;;27.77;13.03;;;4.60;99.90;;;;;;5054398;28;20360;-79
2022/03/25 05:54:56;;;;;;;23.27;11.43;;;4.60;99.90;;;;;;5052595;28;20109;-79
2022/03/25 05:57:22;;;;;;;28.47;12.63;;;4.60;99.90;;;;;;5073721;28;20020;-79
2022/03/25 05:59:48;;;;;;;26.17;11.97;;;4.70;99.90;;;;;;5054168;28;20078;-79
2022/03/25 06:02:14;;;;;;;24.03;11.43;;;4.60;99.90;;;;;;5056203;28;20024;-79
2022/03/25 06:04:40;;;;;;;23.00;11.57;;;4.70;99.90;;;;;;5054082;28;20032;-79
2022/03/25 06:07:06;;;;;;;26.83;12.60;;;4.70;99.90;;;;;;5074772;28;20401;-79
2022/03/25 06:09:32;;;;;;;20.67;11.60;;;4.70;99.90;;;;;;5072956;28;20052;-79
2022/03/25 06:11:58;;;;;;;27.37;11.87;;;4.80;99.90;;;;;;5058209;28;20048;-79
2022/03/25 06:14:25;;;;;;;24.53;11.30;;;4.80;99.90;;;;;;5058709;28;20055;-79
2022/03/25 06:16:51;;;;;;;23.17;11.73;;;4.80;99.90;;;;;;5058269;28;20463;-79
2022/03/25 06:19:17;;;;;;;23.53;12.30;;;4.90;99.90;;;;;;5076307;28;20108;-79
2022/03/25 06:21:43;;;;;;;24.60;12.00;;;4.90;99.90;;;;;;5055454;28;20539;-79
2022/03/25 06:24:09;;;;;;;25.00;11.70;;;4.90;99.90;;;;;;5073258;28;20040;-79
2022/03/25 06:26:34;;;;;;;27.47;13.50;;;4.90;99.90;;;;;;5084282;28;20032;-79
2022/03/25 06:29:00;;;;;;;28.23;12.50;;;5.00;99.90;;;;;;5083120;28;20030;-79
2022/03/25 06:31:26;;;;;;;22.80;11.93;;;4.90;99.90;;;;;;5062266;28;20035;-79
2022/03/25 06:33:51;;;;;;;26.07;12.50;;;5.10;99.90;;;;;;5090112;28;20032;-79
2022/03/25 06:36:17;;;;;;;27.03;13.17;;;5.20;99.90;;;;;;5089532;28;20115;-78
2022/03/25 06:38:43;;;;;;;22.57;11.03;;;5.30;99.90;;;;;;5063339;28;20031;-78
2022/03/25 06:41:10;;;;;;;28.37;13.03;;;5.40;99.90;;;;;;5087823;28;20373;-78
2022/03/25 06:43:36;;;;;;;27.90;11.93;;;5.50;99.90;;;;;;5078721;28;20060;-79
2022/03/25 06:46:03;;;;;;;25.00;12.53;;;5.60;99.90;;;;;;5089707;28;20020;-78
2022/03/25 06:48:29;;;;;;;24.40;11.90;;;5.60;99.90;;;;;;5061077;28;20077;-79
2022/03/25 06:50:56;;;;;;;24.97;12.03;;;5.70;99.90;;;;;;5083456;28;20036;-79
2022/03/25 06:53:21;;;;;;;29.47;13.07;;;5.80;99.90;;;;;;5068250;28;20032;-79
2022/03/25 06:55:48;;;;;;;24.47;12.43;;;5.80;99.80;;;;;;5076566;28;20472;-78
2022/03/25 06:58:14;;;;;;;26.20;13.13;;;5.90;99.40;;;;;;5042015;28;20028;-79
2022/03/25 07:00:40;;;;;;;28.50;12.80;;;5.90;99.20;;;;;;5085934;28;20443;-79
2022/03/25 07:03:06;;;;;;;24.27;12.83;;;6.00;99.30;;;;;;5083739;28;20348;-79
2022/03/25 07:05:32;;;;;;;28.33;12.97;;;6.10;99.30;;;;;;5078599;28;20050;-79
2022/03/25 07:07:58;;;;;;;29.20;13.17;;;6.20;99.40;;;;;;5089117;28;20044;-79
2022/03/25 07:10:26;;;;;;;28.87;13.37;;;6.20;99.00;;;;;;5063995;28;20016;-79
2022/03/25 07:12:53;;;;;;;31.93;14.00;;;6.30;98.70;;;;;;5089571;28;20746;-79
2022/03/25 07:15:23;;;;;;;34.27;13.97;;;6.40;98.80;;;;;;5088830;28;20020;-79
2022/03/25 07:17:49;;;;;;;28.53;13.90;;;6.50;98.70;;;;;;5091950;28;20020;-78
2022/03/25 07:20:17;;;;;;;30.80;14.20;;;6.50;98.30;;;;;;5057484;28;20128;-78
2022/03/25 07:22:44;;;;;;;29.67;13.20;;;6.60;98.50;;;;;;5064323;28;20032;-78
2022/03/25 07:25:11;;;;;;;33.77;13.60;;;6.60;98.30;;;;;;5060484;28;20115;-79
2022/03/25 07:27:37;;;;;;;29.70;13.33;;;6.70;98.00;;;;;;5066015;28;20055;-79
2022/03/25 07:30:04;;;;;;;30.03;13.70;;;6.80;98.10;;;;;;5070454;28;20032;-78
2022/03/25 07:32:30;;;;;;;45.43;14.37;;;6.90;98.10;;;;;;5060788;28;20047;-78
2022/03/25 07:34:56;;;;;;;32.00;13.57;;;6.90;98.00;;;;;;5065289;28;20466;-79
2022/03/25 07:37:22;;;;;;;30.03;14.00;;;7.00;97.60;;;;;;5067145;28;20028;-79
2022/03/25 07:39:48;;;;;;;31.80;13.53;;;7.10;97.70;;;;;;5057536;28;20444;-79
2022/03/25 07:42:13;;;;;;;34.73;14.17;;;7.20;97.60;;;;;;5054367;28;20048;-78
2022/03/25 07:44:39;;;;;;;37.97;14.77;;;7.30;97.10;;;;;;5065123;28;20521;-78
2022/03/25 07:47:07;;;;;;;43.17;15.80;;;7.40;96.80;;;;;;5060962;28;20029;-79
2022/03/25 07:49:34;;;;;;;35.17;14.70;;;7.40;96.30;;;;;;5057395;28;20028;-79
2022/03/25 07:52:01;;;;;;;35.07;15.90;;;7.50;96.20;;;;;;5060461;28;20048;-79
2022/03/25 07:54:26;;;;;;;38.50;15.87;;;7.70;96.00;;;;;;5066856;28;20079;-80
2022/03/25 07:56:55;;;;;;;37.50;15.63;;;7.70;95.50;;;;;;5060369;28;20048;-79
2022/03/25 07:59:21;;;;;;;36.55;16.40;;;7.80;95.10;;;;;;5057486;28;20032;-79
2022/03/25 08:01:46;;;;;;;37.28;16.27;;;7.90;95.20;;;;;;5068833;28;20025;-78
2022/03/25 08:04:13;;;;;;;42.72;17.00;;;8.00;95.20;;;;;;5053343;28;20037;-79
2022/03/25 08:06:38;;;;;;;36.55;16.80;;;8.10;94.90;;;;;;5063223;28;20055;-79
2022/03/25 08:09:04;;;;;;;38.45;16.70;;;8.20;94.60;;;;;;5060262;28;20067;-79
2022/03/25 08:11:29;;;;;;;35.13;16.35;;;8.20;94.00;;;;;;5057981;28;20056;-80
2022/03/25 08:13:55;;;;;;;41.22;17.73;;;8.30;93.40;;;;;;5067586;28;20089;-79
2022/03/25 08:16:20;;;;;;;42.55;17.13;;;8.30;93.30;;;;;;5051791;28;20396;-79
2022/03/25 08:18:46;;;;;;;39.92;17.05;;;8.30;92.50;;;;;;5057751;28;20048;-79
2022/03/25 08:21:12;;;;;;;37.85;16.70;;;8.40;92.50;;;;;;5058785;28;20039;-78
2022/03/25 08:29:06;;;;;;;36.92;17.38;;;8.60;92.40;;;;;;5060973;28;20107;-79
2022/03/25 08:31:34;;;;;;;41.05;18.20;;;8.60;92.10;;;;;;5051595;28;20025;-78
2022/03/25 08:34:04;;;;;;;38.03;17.27;;;8.70;91.90;;;;;;5067243;28;20059;-79
2022/03/25 08:36:30;;;;;;;41.25;16.77;;;8.70;91.70;;;;;;5057308;28;20028;-80
2022/03/25 08:38:56;;;;;;;37.17;17.42;;;8.80;91.50;;;;;;5061366;28;20024;-79
2022/03/25 08:41:21;;;;;;;38.88;16.77;;;8.70;91.10;;;;;;5054595;28;20037;-79
2022/03/25 08:43:47;;;;;;;39.80;17.17;;;8.90;91.50;;;;;;5065593;28;20039;-78
2022/03/25 08:46:13;;;;;;;36.55;17.02;;;9.00;91.10;;;;;;5047813;28;20037;-78
2022/03/25 08:48:39;;;;;;;41.58;17.35;;;9.10;90.80;;;;;;5050988;28;20025;-78
2022/03/25 08:51:05;;;;;;;36.67;16.85;;;9.10;90.50;;;;;;5050425;28;20036;-79
2022/03/25 08:53:31;;;;;;;39.78;17.70;;;9.10;90.20;;;;;;5050886;28;20036;-79
2022/03/25 08:55:57;;;;;;;36.88;16.85;;;9.20;90.00;;;;;;5048639;28;20541;-78
2022/03/25 08:58:22;;;;;;;40.15;17.08;;;9.20;90.30;;;;;;5052349;28;20028;-78
2022/03/25 09:00:48;;;;;;;43.47;17.95;;;9.20;89.40;;;;;;5051089;28;20032;-77
2022/03/25 09:03:14;;;;;;;43.13;18.23;;;9.30;89.50;;;;;;5050342;28;20436;-77
2022/03/25 09:05:40;;;;;;;35.53;16.80;;;9.30;88.70;;;;;;5052315;28;20389;-77
2022/03/25 09:08:06;;;;;;;38.00;16.80;;;9.40;88.60;;;;;;5054180;28;20032;-76
2022/03/25 09:10:33;;;;;;;36.15;17.17;;;9.40;88.10;;;;;;5049780;28;20122;-77
2022/03/25 09:12:59;;;;;;;43.88;17.92;;;9.60;87.10;;;;;;5050398;28;20646;-77
2022/03/25 09:15:25;;;;;;;39.88;17.63;;;9.60;85.60;;;;;;5052010;28;20025;-75
2022/03/25 09:17:51;;;;;;;35.42;16.88;;;9.60;85.60;;;;;;5050115;28;20390;-77
2022/03/25 09:20:17;;;;;;;34.65;16.73;;;9.70;85.20;;;;;;5049767;28;20139;-76
2022/03/25 09:22:43;;;;;;;37.67;17.98;;;9.80;86.00;;;;;;5049040;28;20041;-76
2022/03/25 09:25:10;;;;;;;36.35;15.70;;;9.80;84.90;;;;;;5049059;28;20044;-78
2022/03/25 09:27:37;;;;;;;42.15;16.38;;;10.00;83.50;;;;;;5064906;28;20067;-78
2022/03/25 09:30:07;;;;;;;37.92;16.40;;;10.00;83.70;;;;;;5049953;28;20085;-76
2022/03/25 09:32:33;;;;;;;40.13;17.10;;;10.00;82.80;;;;;;5050853;28;20032;-78
2022/03/25 09:35:11;;;;;;;33.92;15.13;;;10.10;81.00;;;;;;5048978;28;20033;-77
2022/03/25 09:37:48;;;;;;;37.83;16.83;;;10.10;79.20;;;;;;5063429;28;20032;-78
2022/03/25 09:40:18;;;;;;;32.88;15.18;;;10.20;78.90;;;;;;5048484;28;20029;-79
2022/03/25 09:42:45;;;;;;;36.78;16.10;;;10.20;78.90;;;;;;5062518;28;20037;-79
2022/03/25 09:45:13;;;;;;;43.15;16.95;;;10.20;78.80;;;;;;5064089;28;20316;-80
2022/03/25 09:47:40;;;;;;;32.65;16.30;;;10.40;76.10;;;;;;5061888;28;20076;-80
2022/03/25 09:50:08;;;;;;;39.13;16.38;;;10.50;74.60;;;;;;5063920;28;20075;-83
2022/03/25 09:52:35;;;;;;;39.03;17.63;;;10.70;75.70;;;;;;5059704;28;20036;-81
2022/03/25 09:55:01;;;;;;;38.08;16.00;;;10.60;74.90;;;;;;5055736;28;20041;-79
2022/03/25 09:57:28;;;;;;;40.22;17.73;;;10.70;73.80;;;;;;5064307;28;20055;-82
2022/03/25 09:59:54;;;;;;;38.28;17.05;;;10.70;72.60;;;;;;5052481;28;20034;-81
2022/03/25 10:02:20;;;;;;;37.85;17.05;;;10.60;72.30;;;;;;5066475;28;20078;-81
2022/03/25 10:04:47;;;;;;;38.80;17.77;;;10.70;71.90;;;;;;5057131;28;20335;-84
2022/03/25 10:07:22;;;;;;;39.85;17.65;;;10.80;72.30;;;;;;5065499;28;20033;-84
2022/03/25 10:10:04;;;;;;;39.28;17.17;;;10.90;71.30;;;;;;5065635;28;20119;-82
2022/03/25 10:12:30;;;;;;;;;;;11.00;70.20;;;;;;5060220;28;20465;-83
2022/03/25 10:15:13;;;;;;;37.95;16.38;;;11.10;70.40;;;;;;5055291;28;19948;-80
2022/03/25 10:17:52;;;;;;;35.95;16.48;;;11.20;67.30;;;;;;5052962;28;20021;-81
2022/03/25 10:20:21;;;;;;;38.88;16.33;;;11.40;70.20;;;;;;5049880;28;20047;-80
2022/03/25 10:23:08;;;;;;;36.72;16.08;;;11.40;67.50;;;;;;5051264;28;20052;-81
2022/03/25 10:25:39;;;;;;;35.65;16.02;;;11.50;66.10;;;;;;5060520;28;20128;-81
2022/03/25 10:28:21;;;;;;;36.17;17.27;;;11.60;65.70;;;;;;5057987;28;20032;-82
2022/03/25 10:30:53;;;;;;;39.65;16.70;;;11.60;65.60;;;;;;5050674;28;20029;-85
2022/03/25 10:33:26;;;;;;;38.28;16.30;;;11.70;66.60;;;;;;5053187;28;20027;-83
2022/03/25 10:35:58;;;;;;;39.00;15.90;;;11.90;66.30;;;;;;5054016;28;20049;-83
2022/03/25 10:38:25;;;;;;;35.55;16.45;;;12.00;64.90;;;;;;5061555;28;20032;-83
2022/03/25 10:40:53;;;;;;;32.20;16.65;;;12.00;64.10;;;;;;5055743;28;20053;-86
2022/03/25 10:43:19;;;;;;;33.03;16.02;;;12.20;63.40;;;;;;5054248;28;20043;-84
2022/03/25 10:45:46;;;;;;;31.63;16.42;;;12.30;63.20;;;;;;5054701;28;20131;-82
2022/03/25 10:48:18;;;;;;;40.05;18.73;;;12.40;62.00;;;;;;5056010;28;20047;-81
2022/03/25 10:51:05;;;;;;;35.67;17.20;;;12.50;61.50;;;;;;5048918;28;20059;-83
2022/03/25 10:53:33;;;;;;;37.72;16.92;;;12.70;64.20;;;;;;5055544;28;20033;-83
2022/03/25 10:56:03;;;;;;;34.72;16.13;;;12.90;63.00;;;;;;5057650;28;20060;-84
2022/03/25 10:58:29;;;;;;;36.85;17.80;;;13.00;62.80;;;;;;5061731;28;20017;-83
2022/03/25 11:00:55;;;;;;;43.28;17.25;;;13.00;61.30;;;;;;5058520;28;20484;-84
2022/03/25 11:03:22;;;;;;;38.47;18.60;;;13.20;62.20;;;;;;5059169;28;20067;-82
2022/03/25 11:05:49;;;;;;;38.55;17.08;;;13.20;62.10;;;;;;5066009;28;20025;-83
2022/03/25 11:08:15;;;;;;;31.88;16.02;;;13.20;58.90;;;;;;5068048;28;20074;-83
2022/03/25 11:10:40;;;;;;;34.88;16.33;;;13.20;58.90;;;;;;5056330;28;20033;-84
2022/03/25 11:13:08;;;;;;;35.97;17.35;;;13.40;58.00;;;;;;5058055;28;20449;-85
2022/03/25 11:15:36;;;;;;;36.28;16.55;;;13.50;57.60;;;;;;5054641;28;20494;-83
2022/03/25 11:18:02;;;;;;;36.10;16.67;;;13.40;56.50;;;;;;5064111;28;20025;-82
2022/03/25 11:20:28;;;;;;;33.47;16.60;;;13.50;58.30;;;;;;5055823;28;20041;-82
2022/03/25 11:23:31;;;;;;;40.67;18.13;;;13.70;59.30;;;;;;5055952;28;20492;-82
2022/03/25 11:26:01;;;;;;;35.22;16.88;;;13.70;56.50;;;;;;5063349;28;20045;-83
2022/03/25 11:28:31;;;;;;;37.90;16.98;;;13.70;56.40;;;;;;5059645;28;20309;-84
2022/03/25 11:30:59;;;;;;;34.17;15.95;;;13.90;58.20;;;;;;5060700;28;20116;-82
2022/03/25 11:33:25;;;;;;;33.85;16.35;;;14.00;58.80;;;;;;5067880;28;20020;-84
2022/03/25 11:36:13;;;;;;;34.25;16.58;;;14.00;57.90;;;;;;5068137;28;20116;-91
2022/03/25 11:38:39;;;;;;;33.00;16.58;;;14.10;56.60;;;;;;5056370;28;20425;-83
2022/03/25 11:41:25;;;;;;;37.45;16.75;;;14.40;59.90;;;;;;5055769;28;20029;-80
2022/03/25 11:44:14;;;;;;;37.40;17.45;;;14.40;60.70;;;;;;5065122;28;20036;-93
2022/03/25 11:47:00;;;;;;;35.70;16.85;;;14.50;58.30;;;;;;5046195;28;20083;-86
2022/03/25 11:49:27;;;;;;;34.53;17.17;;;14.70;58.10;;;;;;5047513;28;20112;-82
2022/03/25 11:51:53;;;;;;;36.50;16.85;;;14.80;58.20;;;;;;5054940;28;20104;-84
2022/03/25 11:54:40;;;;;;;40.33;18.55;;;14.80;57.60;;;;;;5064291;28;20060;-80
2022/03/25 11:57:22;;;;;;;35.47;17.13;;;14.90;56.00;;;;;;5057435;28;20079;-84
2022/03/25 11:59:54;;;;;;;37.58;20.02;;;14.90;57.10;;;;;;5073447;28;20044;-80
2022/03/25 12:02:23;;;;;;;41.33;16.92;;;14.90;55.50;;;;;;5054098;28;20029;-80
2022/03/25 12:04:49;;;;;;;38.50;18.23;;;14.90;56.00;;;;;;5055832;28;20029;-80
2022/03/25 12:07:16;;;;;;;38.47;18.50;;;15.00;55.30;;;;;;5055120;28;20412;-81
2022/03/25 12:09:45;;;;;;;37.88;18.20;;;15.10;56.70;;;;;;5053340;28;20027;-80
2022/03/25 12:12:11;;;;;;;38.20;17.90;;;15.40;56.70;;;;;;5056288;28;20108;-82
2022/03/25 12:15:07;;;;;;;37.65;18.63;;;15.60;57.90;;;;;;5055121;28;20029;-80
2022/03/25 12:17:33;;;;;;;36.20;17.27;;;15.70;54.80;;;;;;5056860;28;20032;-79
2022/03/25 12:20:01;;;;;;;38.10;19.17;;;15.80;54.20;;;;;;5061652;28;20048;-80
2022/03/25 12:22:29;;;;;;;41.75;19.75;;;15.90;53.80;;;;;;5054626;28;20035;-80
2022/03/25 12:24:58;;;;;;;38.78;19.85;;;16.00;54.30;;;;;;5054067;28;20037;-80
2022/03/25 12:27:25;;;;;;;33.08;17.73;;;16.20;52.90;;;;;;5056407;28;20029;-83
2022/03/25 12:29:53;;;;;;;37.95;17.30;;;16.40;53.10;;;;;;5057005;28;20048;-79
2022/03/25 12:32:22;;;;;;;34.90;18.90;;;16.70;54.10;;;;;;5054222;28;20477;-81
2022/03/25 12:34:53;;;;;;;37.80;18.63;;;17.00;52.70;;;;;;5059341;28;20024;-80
2022/03/25 12:37:42;;;;;;;;;;;17.20;49.90;;;;;;5066907;28;20100;-81
2022/03/25 12:40:23;;;;;;;36.33;17.52;;;17.40;49.90;;;;;;5060627;28;19919;-80
2022/03/25 12:42:52;;;;;;;37.47;19.25;;;17.60;49.80;;;;;;5065387;28;20032;-79